createdAt,value
2023-12-19T00:01:20.768Z,15.63
2023-12-19T00:03:47.472Z,15.40
2023-12-19T00:06:14.104Z,14.15
2023-12-19T00:08:40.445Z,15.95
2023-12-19T00:11:07.293Z,15.48
2023-12-19T00:13:33.760Z,15.55
2023-12-19T00:16:00.324Z,14.55
2023-12-19T00:18:26.923Z,16.38
2023-12-19T00:20:53.373Z,13.73
2023-12-19T00:23:19.859Z,15.32
2023-12-19T00:25:47.227Z,14.90
2023-12-19T00:28:13.543Z,12.57
2023-12-19T00:30:40.174Z,15.13
2023-12-19T00:33:06.797Z,11.30
2023-12-19T00:35:33.354Z,17.42
2023-12-19T00:37:59.679Z,13.98
2023-12-19T00:40:26.046Z,15.15
2023-12-19T00:42:52.441Z,14.35
2023-12-19T00:45:18.857Z,12.00
2023-12-19T00:47:45.545Z,14.57
2023-12-19T00:50:11.926Z,11.75
2023-12-19T00:52:38.302Z,15.57
2023-12-19T00:55:05.170Z,15.50
2023-12-19T00:57:32.640Z,14.48
2023-12-19T00:59:59.011Z,15.70
2023-12-19T01:02:25.382Z,19.30
2023-12-19T01:04:51.852Z,14.15
2023-12-19T01:07:18.266Z,13.73
2023-12-19T01:09:44.705Z,13.35
2023-12-19T01:12:11.088Z,13.65
2023-12-19T01:14:37.421Z,16.00
2023-12-19T01:17:03.884Z,15.05
2023-12-19T01:19:30.473Z,15.55
2023-12-19T01:21:56.890Z,17.67
2023-12-19T01:24:23.320Z,13.05
2023-12-19T01:26:49.735Z,16.15
2023-12-19T01:29:16.748Z,12.13
2023-12-19T01:31:43.340Z,13.65
2023-12-19T01:34:10.542Z,14.82
2023-12-19T01:36:39.581Z,13.25
2023-12-19T01:39:06.000Z,13.13
2023-12-19T01:41:32.397Z,14.88
2023-12-19T01:44:02.302Z,19.13
2023-12-19T01:46:29.133Z,12.68
2023-12-19T01:48:55.826Z,12.95
2023-12-19T01:51:22.367Z,16.40
2023-12-19T01:53:49.549Z,14.95
2023-12-19T01:56:18.420Z,11.98
2023-12-19T01:58:45.746Z,13.00
2023-12-19T02:01:13.567Z,14.48
2023-12-19T02:03:42.449Z,14.48
2023-12-19T02:06:11.919Z,14.85
2023-12-19T02:08:38.257Z,13.43
2023-12-19T02:11:05.121Z,14.73
2023-12-19T02:13:31.653Z,12.88
2023-12-19T02:15:58.313Z,12.95
2023-12-19T02:18:24.863Z,15.10
2023-12-19T02:20:51.286Z,12.38
2023-12-19T02:23:17.772Z,16.40
2023-12-19T02:25:44.131Z,14.48
2023-12-19T02:28:10.632Z,10.75
2023-12-19T02:30:37.563Z,12.63
2023-12-19T02:35:32.176Z,12.27
2023-12-19T02:37:58.574Z,12.23
2023-12-19T02:40:25.058Z,10.85
2023-12-19T02:42:51.522Z,11.48
2023-12-19T02:45:17.969Z,12.00
2023-12-19T02:47:44.418Z,13.43
2023-12-19T02:50:11.182Z,12.65
2023-12-19T02:52:37.489Z,12.43
2023-12-19T02:55:04.225Z,12.45
2023-12-19T02:57:30.717Z,14.43
2023-12-19T02:59:57.114Z,12.52
2023-12-19T03:02:23.534Z,11.25
2023-12-19T03:04:49.941Z,10.52
2023-12-19T03:07:16.560Z,14.63
2023-12-19T03:09:43.001Z,11.85
2023-12-19T03:12:09.529Z,11.93
2023-12-19T03:14:37.636Z,13.98
2023-12-19T03:17:06.540Z,12.13
2023-12-19T03:19:33.039Z,13.85
2023-12-19T03:21:59.551Z,10.38
2023-12-19T03:24:26.037Z,13.38
2023-12-19T03:26:52.423Z,10.38
2023-12-19T03:29:18.767Z,12.55
2023-12-19T03:31:45.161Z,10.82
2023-12-19T03:34:11.987Z,12.20
2023-12-19T03:36:38.760Z,12.57
2023-12-19T03:39:05.208Z,12.25
2023-12-19T03:41:31.673Z,12.23
2023-12-19T03:43:58.052Z,9.85
2023-12-19T03:46:24.498Z,14.23
2023-12-19T03:48:50.977Z,12.65
2023-12-19T03:51:17.476Z,11.57
2023-12-19T03:53:43.841Z,10.07
2023-12-19T03:56:10.249Z,11.95
2023-12-19T03:58:39.297Z,12.77
2023-12-19T04:01:05.774Z,11.52
2023-12-19T04:03:32.281Z,11.45
2023-12-19T04:05:58.709Z,13.43
2023-12-19T04:08:25.077Z,9.55
2023-12-19T04:10:51.656Z,11.65
2023-12-19T04:13:18.112Z,10.07
2023-12-19T04:15:44.566Z,9.20
2023-12-19T04:18:11.883Z,12.63
2023-12-19T04:20:39.109Z,13.07
2023-12-19T04:23:05.486Z,8.52
2023-12-19T04:25:31.816Z,12.40
2023-12-19T04:27:58.211Z,11.02
2023-12-19T04:30:24.771Z,12.63
2023-12-19T04:32:51.318Z,13.85
2023-12-19T04:35:17.701Z,10.65
2023-12-19T04:37:44.097Z,9.60
2023-12-19T04:40:10.788Z,10.48
2023-12-19T04:42:37.175Z,12.70
2023-12-19T04:45:03.787Z,13.73
2023-12-19T04:47:30.216Z,11.23
2023-12-19T04:49:56.743Z,11.75
2023-12-19T04:52:23.350Z,10.73
2023-12-19T04:54:49.730Z,13.00
2023-12-19T04:57:16.115Z,11.20
2023-12-19T04:59:42.530Z,11.82
2023-12-19T05:02:08.946Z,11.82
2023-12-19T05:04:35.395Z,10.02
2023-12-19T05:07:01.921Z,14.00
2023-12-19T05:09:28.398Z,10.60
2023-12-19T05:11:54.770Z,12.88
2023-12-19T05:14:21.186Z,11.70
2023-12-19T05:16:47.600Z,12.02
2023-12-19T05:19:14.465Z,10.90
2023-12-19T05:21:41.124Z,12.07
2023-12-19T05:24:07.604Z,15.52
2023-12-19T05:26:33.995Z,12.98
2023-12-19T05:29:00.464Z,15.07
2023-12-19T05:31:26.970Z,15.00
2023-12-19T05:33:53.469Z,19.83
2023-12-19T05:36:20.133Z,15.40
2023-12-19T05:38:46.462Z,11.50
2023-12-19T05:41:12.796Z,17.25
2023-12-19T05:43:39.200Z,11.65
2023-12-19T05:46:05.630Z,12.85
2023-12-19T05:48:32.106Z,12.80
2023-12-19T05:50:58.556Z,11.68
2023-12-19T05:53:25.056Z,12.75
2023-12-19T05:55:51.510Z,13.25
2023-12-19T05:58:18.217Z,11.32
2023-12-19T06:00:44.965Z,13.40
2023-12-19T06:03:11.632Z,12.63
2023-12-19T06:05:38.027Z,13.07
2023-12-19T06:08:04.756Z,13.38
2023-12-19T06:10:31.151Z,11.38
2023-12-19T06:12:57.499Z,12.45
2023-12-19T06:15:24.310Z,13.75
2023-12-19T06:17:50.841Z,10.57
2023-12-19T06:20:17.368Z,11.88
2023-12-19T06:22:44.102Z,12.35
2023-12-19T06:25:12.391Z,17.55
2023-12-19T06:30:14.773Z,10.48
2023-12-19T06:32:49.304Z,12.23
2023-12-19T06:35:15.815Z,10.98
2023-12-19T06:37:42.380Z,11.13
2023-12-19T06:40:09.330Z,10.65
2023-12-19T06:42:35.766Z,11.75
2023-12-19T06:45:02.165Z,10.25
2023-12-19T06:47:29.393Z,12.38
2023-12-19T06:49:55.975Z,13.30
2023-12-19T06:52:22.633Z,13.80
2023-12-19T06:54:49.116Z,11.32
2023-12-19T06:57:15.764Z,14.80
2023-12-19T06:59:42.113Z,13.77
2023-12-19T07:02:08.788Z,10.68
2023-12-19T07:04:35.313Z,14.98
2023-12-19T07:07:01.816Z,14.05
2023-12-19T07:09:28.263Z,16.23
2023-12-19T07:11:54.640Z,16.38
2023-12-19T07:14:20.968Z,14.13
2023-12-19T07:16:47.688Z,15.85
2023-12-19T07:19:17.338Z,13.45
2023-12-19T07:21:43.787Z,12.75
2023-12-19T07:24:10.671Z,14.68
2023-12-19T07:26:37.018Z,10.30
2023-12-19T07:29:03.668Z,11.00
2023-12-19T07:31:31.571Z,16.83
2023-12-19T07:36:29.300Z,14.07
2023-12-19T07:38:55.753Z,12.05
2023-12-19T07:41:23.640Z,12.82
2023-12-19T07:43:50.333Z,14.15
2023-12-19T07:46:16.730Z,14.85
2023-12-19T07:48:43.171Z,11.70
2023-12-19T07:51:15.320Z,11.60
2023-12-19T07:53:41.658Z,14.93
2023-12-19T07:56:08.232Z,14.30
2023-12-19T07:58:34.587Z,13.90
2023-12-19T08:01:01.582Z,11.82
2023-12-19T08:03:31.922Z,13.50
2023-12-19T08:05:58.380Z,16.95
2023-12-19T08:08:24.771Z,13.30
2023-12-19T08:10:51.806Z,17.23
2023-12-19T08:13:18.888Z,15.80
2023-12-19T08:15:46.382Z,12.63
2023-12-19T08:18:12.874Z,15.70
2023-12-19T08:20:39.423Z,12.15
2023-12-19T08:23:05.864Z,11.27
2023-12-19T08:25:32.661Z,16.35
2023-12-19T08:27:59.130Z,11.70
2023-12-19T08:30:26.237Z,15.05
2023-12-19T08:32:52.670Z,12.20
2023-12-19T08:35:19.052Z,14.82
2023-12-19T08:37:45.683Z,15.13
2023-12-19T08:40:12.409Z,13.15
2023-12-19T08:42:38.936Z,12.50
2023-12-19T08:45:05.726Z,13.30
2023-12-19T08:47:32.072Z,14.32
2023-12-19T08:49:58.734Z,14.45
2023-12-19T08:52:25.441Z,10.50
2023-12-19T08:54:51.936Z,13.20
2023-12-19T08:57:18.364Z,13.68
2023-12-19T08:59:44.773Z,13.18
2023-12-19T09:02:11.122Z,14.05
2023-12-19T09:04:37.678Z,13.57
2023-12-19T09:07:04.327Z,10.30
2023-12-19T09:09:30.716Z,11.70
2023-12-19T09:11:57.105Z,11.60
2023-12-19T09:14:23.531Z,14.15
2023-12-19T09:16:49.900Z,13.00
2023-12-19T09:19:16.684Z,9.85
2023-12-19T09:21:43.176Z,12.02
2023-12-19T09:24:09.592Z,10.40
2023-12-19T09:26:39.345Z,13.35
2023-12-19T09:29:08.665Z,13.07
2023-12-19T09:31:35.307Z,13.80
2023-12-19T09:34:02.003Z,10.55
2023-12-19T09:36:28.449Z,12.77
2023-12-19T09:38:54.799Z,11.07
2023-12-19T09:41:21.236Z,12.90
2023-12-19T09:43:47.660Z,11.82
2023-12-19T09:46:14.060Z,8.50
2023-12-19T09:48:42.650Z,10.95
2023-12-19T09:51:19.846Z,11.68
2023-12-19T09:53:49.143Z,9.85
2023-12-19T09:56:16.924Z,8.77
2023-12-19T09:58:45.616Z,12.45
2023-12-19T10:01:12.299Z,12.93
2023-12-19T10:03:38.819Z,11.07
2023-12-19T10:06:05.614Z,11.02
2023-12-19T10:08:32.290Z,10.68
2023-12-19T10:10:58.623Z,10.77
2023-12-19T10:13:33.174Z,9.73
2023-12-19T10:16:29.458Z,9.25
2023-12-19T10:18:56.755Z,9.13
2023-12-19T10:21:23.879Z,8.65
2023-12-19T10:23:50.218Z,12.05
2023-12-19T10:26:16.596Z,14.88
2023-12-19T10:28:42.927Z,8.90
2023-12-19T10:31:11.484Z,11.27
2023-12-19T10:33:43.895Z,11.45
2023-12-19T10:36:28.347Z,8.80
2023-12-19T10:38:56.370Z,8.60
2023-12-19T10:41:25.478Z,10.55
2023-12-19T10:43:53.555Z,9.80
2023-12-19T10:46:20.736Z,9.88
2023-12-19T10:48:47.251Z,11.13
2023-12-19T10:51:17.179Z,11.02
2023-12-19T10:53:47.988Z,9.55
2023-12-19T10:56:17.377Z,10.52
2023-12-19T10:58:49.675Z,10.93
2023-12-19T11:01:20.068Z,10.10
2023-12-19T11:03:56.837Z,9.75
2023-12-19T11:06:26.605Z,10.18
2023-12-19T11:08:55.745Z,9.38
2023-12-19T11:11:31.888Z,10.98
2023-12-19T11:14:00.909Z,11.07
2023-12-19T11:16:33.936Z,12.07
2023-12-19T11:19:16.884Z,12.60
2023-12-19T11:21:58.303Z,18.73
2023-12-19T11:24:29.979Z,14.63
2023-12-19T11:27:17.775Z,14.77
2023-12-19T11:29:45.019Z,10.57
2023-12-19T11:32:34.796Z,12.48
2023-12-19T11:35:07.226Z,11.13
2023-12-19T11:37:35.155Z,9.65
2023-12-19T11:40:01.541Z,12.45
2023-12-19T11:42:40.715Z,10.02
2023-12-19T11:45:19.572Z,11.32
2023-12-19T11:47:47.577Z,14.25
2023-12-19T11:50:45.943Z,11.43
2023-12-19T11:53:12.321Z,12.00
2023-12-19T11:55:38.692Z,9.68
2023-12-19T11:58:12.789Z,11.95
2023-12-19T12:00:42.504Z,12.85
2023-12-19T12:03:12.979Z,10.00
2023-12-19T12:05:40.303Z,8.43
2023-12-19T12:08:07.307Z,11.02
2023-12-19T12:10:33.691Z,10.10
2023-12-19T12:13:03.490Z,11.13
2023-12-19T12:15:29.943Z,8.82
2023-12-19T12:18:07.955Z,12.85
2023-12-19T12:20:35.090Z,7.15
2023-12-19T12:23:02.590Z,8.90
2023-12-19T12:25:29.872Z,6.90
2023-12-19T12:28:09.408Z,8.32
2023-12-19T12:30:37.122Z,7.93
2023-12-19T12:33:05.408Z,7.22
2023-12-19T12:35:35.170Z,8.60
2023-12-19T12:38:09.167Z,9.10
2023-12-19T12:40:35.533Z,10.52
2023-12-19T12:43:29.040Z,7.22
2023-12-19T12:46:06.088Z,8.88
2023-12-19T12:48:32.593Z,9.70
2023-12-19T12:50:59.999Z,9.90
2023-12-19T12:53:26.502Z,11.35
2023-12-19T12:56:14.671Z,9.65
2023-12-19T12:58:41.612Z,7.50
2023-12-19T13:01:09.202Z,8.63
2023-12-19T13:06:03.090Z,6.88
2023-12-19T13:08:30.271Z,7.32
2023-12-19T13:11:00.741Z,7.03
2023-12-19T13:13:27.768Z,5.93
2023-12-19T13:15:54.514Z,6.45
2023-12-19T13:18:22.707Z,5.82
2023-12-19T13:20:49.730Z,6.32
2023-12-19T13:23:16.234Z,5.22
2023-12-19T13:25:42.658Z,5.70
2023-12-19T13:28:09.511Z,4.78
2023-12-19T13:30:38.716Z,6.35
2023-12-19T13:33:06.976Z,5.45
2023-12-19T13:35:35.925Z,5.55
2023-12-19T13:38:02.884Z,6.55
2023-12-19T13:40:29.466Z,6.75
2023-12-19T13:42:56.902Z,6.10
2023-12-19T13:45:30.484Z,4.57
2023-12-19T13:47:57.633Z,5.63
2023-12-19T13:50:24.096Z,4.60
2023-12-19T13:52:50.510Z,4.65
2023-12-19T13:55:17.512Z,4.95
2023-12-19T13:57:44.527Z,4.38
2023-12-19T14:00:16.747Z,4.25
2023-12-19T14:02:46.078Z,5.78
2023-12-19T14:05:12.763Z,6.30
2023-12-19T14:07:40.224Z,6.15
2023-12-19T14:10:07.956Z,5.13
2023-12-19T14:12:38.289Z,5.80
2023-12-19T14:15:05.300Z,5.72
2023-12-19T14:17:31.953Z,4.65
2023-12-19T14:19:58.360Z,5.18
2023-12-19T14:22:24.792Z,7.43
2023-12-19T14:24:51.243Z,5.35
2023-12-19T14:27:17.638Z,5.93
2023-12-19T14:29:43.984Z,6.35
2023-12-19T14:32:10.336Z,7.18
2023-12-19T14:34:36.803Z,5.72
2023-12-19T14:37:03.301Z,4.72
2023-12-19T14:39:29.810Z,5.38
2023-12-19T14:41:56.294Z,4.88
2023-12-19T14:44:22.625Z,5.38
2023-12-19T14:46:49.002Z,5.82
2023-12-19T14:49:15.920Z,4.30
2023-12-19T14:51:42.582Z,5.57
2023-12-19T14:54:08.955Z,5.05
2023-12-19T14:56:35.297Z,5.55
2023-12-19T14:59:01.684Z,5.28
2023-12-19T15:01:28.114Z,4.97
2023-12-19T15:03:54.527Z,4.47
2023-12-19T15:06:21.730Z,5.70
2023-12-19T15:08:48.312Z,4.95
2023-12-19T15:11:14.912Z,4.53
2023-12-19T15:13:41.676Z,5.80
2023-12-19T15:16:08.095Z,6.05
2023-12-19T15:18:39.291Z,5.82
2023-12-19T15:21:07.158Z,6.68
2023-12-19T15:23:34.416Z,5.05
2023-12-19T15:26:00.958Z,5.07
2023-12-19T15:28:27.367Z,5.20
2023-12-19T15:30:53.783Z,5.07
2023-12-19T15:33:20.246Z,6.78
2023-12-19T15:35:46.701Z,5.05
2023-12-19T15:38:13.069Z,5.70
2023-12-19T15:40:42.213Z,6.45
2023-12-19T15:43:08.721Z,4.55
2023-12-19T15:45:35.167Z,4.63
2023-12-19T15:48:01.657Z,5.20
2023-12-19T15:50:28.012Z,5.82
2023-12-19T15:52:54.344Z,5.80
2023-12-19T15:55:20.740Z,5.20
2023-12-19T15:57:47.137Z,6.05
2023-12-19T16:00:14.119Z,7.55
2023-12-19T16:02:46.048Z,5.25
2023-12-19T16:05:15.386Z,6.00
2023-12-19T16:07:41.767Z,5.50
2023-12-19T16:10:08.491Z,4.53
2023-12-19T16:12:35.133Z,5.90
2023-12-19T16:15:01.538Z,5.13
2023-12-19T16:17:27.927Z,4.72
2023-12-19T16:19:54.375Z,5.75
2023-12-19T16:22:21.690Z,6.43
2023-12-19T16:24:48.117Z,5.63
2023-12-19T16:27:14.494Z,6.47
2023-12-19T16:29:40.841Z,4.20
2023-12-19T16:32:07.358Z,5.60
2023-12-19T16:34:34.129Z,5.72
2023-12-19T16:37:00.703Z,5.72
2023-12-19T16:39:27.124Z,4.95
2023-12-19T16:41:53.459Z,7.20
2023-12-19T16:44:19.782Z,7.18
2023-12-19T16:46:47.192Z,7.90
2023-12-19T16:49:13.821Z,6.75
2023-12-19T16:51:40.636Z,10.73
2023-12-19T16:54:07.196Z,6.50
2023-12-19T16:56:34.800Z,5.30
2023-12-19T16:59:02.096Z,13.65
2023-12-19T17:01:28.493Z,6.30
2023-12-19T17:03:55.474Z,6.25
2023-12-19T17:06:21.887Z,7.25
2023-12-19T17:08:48.213Z,6.82
2023-12-19T17:11:14.623Z,10.77
2023-12-19T17:13:40.951Z,8.45
2023-12-19T17:16:07.409Z,4.80
2023-12-19T17:18:34.056Z,5.10
2023-12-19T17:21:00.672Z,6.28
2023-12-19T17:23:30.864Z,6.18
2023-12-19T17:26:03.144Z,6.03
2023-12-19T17:28:29.585Z,7.00
2023-12-19T17:30:55.984Z,7.15
2023-12-19T17:33:22.350Z,6.25
2023-12-19T17:35:48.750Z,5.78
2023-12-19T17:38:15.109Z,4.57
2023-12-19T17:40:41.494Z,5.72
2023-12-19T17:43:07.938Z,5.60
2023-12-19T17:45:34.274Z,7.90
2023-12-19T17:48:00.699Z,6.60
2023-12-19T17:50:27.186Z,7.07
2023-12-19T17:52:53.620Z,4.70
2023-12-19T17:55:19.998Z,6.53
2023-12-19T17:57:46.408Z,4.97
2023-12-19T18:00:13.136Z,11.23
2023-12-19T18:02:39.773Z,7.50
2023-12-19T18:05:06.408Z,6.00
2023-12-19T18:07:32.937Z,6.53
2023-12-19T18:09:59.409Z,7.30
2023-12-19T18:12:25.793Z,5.15
2023-12-19T18:14:52.346Z,6.35
2023-12-19T18:17:18.748Z,5.80
2023-12-19T18:19:45.366Z,5.65
2023-12-19T18:22:11.821Z,6.22
2023-12-19T18:24:38.290Z,7.30
2023-12-19T18:27:05.240Z,6.07
2023-12-19T18:29:32.051Z,7.18
2023-12-19T18:31:58.461Z,6.00
2023-12-19T18:34:25.009Z,8.82
2023-12-19T18:36:51.504Z,7.20
2023-12-19T18:39:18.156Z,9.10
2023-12-19T18:41:47.564Z,8.15
2023-12-19T18:44:13.900Z,7.50
2023-12-19T18:46:41.352Z,9.52
2023-12-19T18:49:09.456Z,7.93
2023-12-19T18:51:36.055Z,6.57
2023-12-19T18:54:02.498Z,7.93
2023-12-19T18:56:28.953Z,8.48
2023-12-19T18:58:55.292Z,24.10
2023-12-19T19:01:23.682Z,24.30
2023-12-19T19:03:50.321Z,20.63
2023-12-19T19:06:16.732Z,26.23
2023-12-19T19:08:43.354Z,22.48
2023-12-19T19:11:09.755Z,11.25
2023-12-19T19:13:36.318Z,7.97
2023-12-19T19:16:02.859Z,8.73
2023-12-19T19:18:31.064Z,9.23
2023-12-19T19:20:57.710Z,11.68
2023-12-19T19:23:24.111Z,12.60
2023-12-19T19:25:50.582Z,13.43
2023-12-19T19:28:17.129Z,11.75
2023-12-19T19:30:47.550Z,26.80
2023-12-19T19:33:14.425Z,33.33
2023-12-19T19:35:40.938Z,35.58
2023-12-19T19:38:07.569Z,33.13
2023-12-19T19:40:41.398Z,32.85
2023-12-19T19:43:11.235Z,15.43
2023-12-19T19:45:38.286Z,18.55
2023-12-19T19:48:05.364Z,13.27
2023-12-19T19:50:31.821Z,13.00
2023-12-19T19:52:59.321Z,16.02
2023-12-19T19:55:26.207Z,15.35
2023-12-19T19:57:52.983Z,12.93
2023-12-19T20:00:19.675Z,11.23
2023-12-19T20:02:46.198Z,12.70
2023-12-19T20:05:13.028Z,12.13
2023-12-19T20:07:39.639Z,10.98
2023-12-19T20:10:06.836Z,11.63
2023-12-19T20:12:33.592Z,14.35
2023-12-19T20:17:51.229Z,11.45
2023-12-19T20:20:17.736Z,9.00
2023-12-19T20:22:44.359Z,17.65
2023-12-19T20:25:12.129Z,23.35
2023-12-19T20:30:28.607Z,13.13
2023-12-19T20:32:55.036Z,8.90
2023-12-19T20:35:21.451Z,7.53
2023-12-19T20:37:51.434Z,8.05
2023-12-19T20:40:18.037Z,6.65
2023-12-19T20:45:34.839Z,5.75
2023-12-19T20:50:52.139Z,6.10
2023-12-19T20:53:18.584Z,5.30
2023-12-19T20:55:45.209Z,6.90
2023-12-19T20:58:11.674Z,7.22
2023-12-19T21:00:38.152Z,5.50
2023-12-19T21:03:04.633Z,5.93
2023-12-19T21:05:31.027Z,7.50
2023-12-19T21:07:57.447Z,6.20
2023-12-19T21:10:23.850Z,4.97
2023-12-19T21:12:50.522Z,5.00
2023-12-19T21:15:17.021Z,5.28
2023-12-19T21:17:43.550Z,5.22
2023-12-19T21:20:10.663Z,6.07
2023-12-19T21:22:37.005Z,4.45
2023-12-19T21:25:03.911Z,6.60
2023-12-19T21:27:30.458Z,6.18
2023-12-19T21:29:56.887Z,4.20
2023-12-19T21:32:23.218Z,5.60
2023-12-19T21:34:49.784Z,4.80
2023-12-19T21:37:16.360Z,5.07
2023-12-19T21:39:42.871Z,4.65
2023-12-19T21:42:09.330Z,3.95
2023-12-19T21:44:35.687Z,8.07
2023-12-19T21:47:03.200Z,4.68
2023-12-19T21:49:29.722Z,5.78
2023-12-19T21:51:56.158Z,3.72
2023-12-19T21:54:22.615Z,4.10
2023-12-19T21:56:49.063Z,4.68
2023-12-19T21:59:15.469Z,3.75
2023-12-19T22:01:45.258Z,3.17
2023-12-19T22:04:11.956Z,5.00
2023-12-19T22:06:38.530Z,4.80
2023-12-19T22:09:05.085Z,4.72
2023-12-19T22:11:36.638Z,4.78
2023-12-19T22:14:05.577Z,5.63
2023-12-19T22:16:32.903Z,5.35
2023-12-19T22:19:00.313Z,4.95
2023-12-19T22:21:26.950Z,3.83
2023-12-19T22:23:53.947Z,4.28
2023-12-19T22:26:21.014Z,6.88
2023-12-19T22:28:48.966Z,4.43
2023-12-19T22:31:16.276Z,3.00
2023-12-19T22:33:42.929Z,4.22
2023-12-19T22:36:09.385Z,4.10
2023-12-19T22:38:36.916Z,3.95
2023-12-19T22:41:03.444Z,4.60
2023-12-19T22:43:29.781Z,5.47
2023-12-19T22:45:56.313Z,6.22
2023-12-19T22:48:22.914Z,5.78
2023-12-19T22:50:50.335Z,4.68
2023-12-19T22:53:16.679Z,6.38
2023-12-19T22:55:43.001Z,5.22
2023-12-19T22:58:09.877Z,7.30
2023-12-19T23:00:36.501Z,5.22
2023-12-19T23:03:03.240Z,7.07
2023-12-19T23:05:29.568Z,5.10
2023-12-19T23:07:56.015Z,6.47
2023-12-19T23:10:22.613Z,5.38
2023-12-19T23:12:49.778Z,6.43
2023-12-19T23:15:16.188Z,7.03
2023-12-19T23:17:42.607Z,5.90
2023-12-19T23:20:09.850Z,6.70
2023-12-19T23:22:36.374Z,6.72
2023-12-19T23:25:02.777Z,7.78
2023-12-19T23:27:29.146Z,6.63
2023-12-19T23:29:55.528Z,5.97
2023-12-19T23:32:21.919Z,7.72
2023-12-19T23:34:48.318Z,6.93
2023-12-19T23:37:14.936Z,4.95
2023-12-19T23:39:41.429Z,6.68
2023-12-19T23:42:07.854Z,6.18
2023-12-19T23:44:34.194Z,6.78
2023-12-19T23:47:00.521Z,6.60
2023-12-19T23:49:26.981Z,6.07
2023-12-19T23:51:53.467Z,6.43
2023-12-19T23:54:19.867Z,5.65
2023-12-19T23:56:46.288Z,6.50
2023-12-19T23:59:12.719Z,5.10
